HRHO2: North Canadian River

                                SHEF ID:       HRHO2     North Canadian River near Harrah
STATION TYPE:
Regulating: Stage = 15.00, Flow = 8563

STAGE RIV-FLOW WTR-TEMP DIS-OXY PH CONDUCT BAT-LOAD
ft cfs F mg/l su umho/cm volt
Ccp-Rev Ccp-Rev Ccp-Rev Ccp-Rev Ccp-Rev Ccp-Rev Ccp-Rev
(America/Chicago)
02/12 00:00 3.31 136 52.65 9.36 7.95 906 12.04
02/12 01:00 3.31 136 52.00 9.31 7.93 906 12.02
02/12 02:00 3.32 138 51.37 9.29 7.91 908 12.01
02/12 03:00 3.32 138 50.76 9.28 7.90 912 11.99
02/12 04:00 3.32 138 50.18 9.31 7.89 919 11.98
02/12 05:00 3.33 139 49.68 0.00 7.88 926 11.96
02/12 06:00 3.33 139 49.26 0.00 7.87 933 11.94
02/12 07:00 3.34 141 48.97 0.00 7.87 939 11.91
02/12 08:00 3.35 143 48.96 9.49 7.89 943 11.90
02/12 09:00 3.36 145 49.84 9.94 7.93 940 11.97
02/12 10:00 3.37 147 51.49 0.00 7.97 938 12.36
02/12 11:00 3.37 147 53.58 57.70 8.03 934 12.65
02/12 12:00 3.37 147 55.81 19.53 8.08 935 12.88
02/12 13:00 3.37 147 58.03 27.17 8.14 936 12.86
02/12 14:00 3.37 147 59.59 17.21 8.18 933 12.96
02/12 15:00 3.37 147 60.82 15.85 8.21 928 12.93
02/12 16:00 3.37 147 61.23 14.30 8.24 927 13.13
02/12 17:00 3.37 147 60.89 11.23 8.24 928 13.09
02/12 18:00 3.36 145 60.21 10.59 8.21 925 12.80
02/12 19:00 3.36 145 59.43 10.11 8.14 927 12.48
02/12 20:00 3.35 143 58.77 9.62 8.09 929 12.26
02/12 21:00 3.35 143 58.28 9.28 8.02 930 12.11
02/12 22:00 3.35 143 58.03 9.12 8.00 931 12.02
02/12 23:00 ---- ---- ---- ---- ---- ---- ----
Data processed at Fri 13Feb2026 05:25 GMT

NOTICE: If you are parsing this page

Please convert to using our Data API. Starting early 2026 we will be migrating to: https://water.usace.army.mil with modern pages rendered in JavaScript. When this migration completes you will no longer be able to scrape this page! CWMSDataAPI (CDA)

Timeseries IDs (TSIDs)

TSIDs used from left to right in the data table
HARR.Stage.Inst.1Hour.0.Ccp-Rev
HARR.Flow.Inst.1Hour.0.Ccp-Rev
HARR.Temp-Water.Inst.1Hour.0.Ccp-Rev
HARR.Conc-DO.Inst.1Hour.0.Ccp-Rev
HARR.pH.Inst.1Hour.0.Ccp-Rev
HARR.Cond-Water.Inst.1Hour.0.Ccp-Rev
HARR.Volt-Battery Load.Inst.1Hour.0.Ccp-Rev

                            

All information presented herein is the property of the government of the United States of America and may be revised or deleted at any time without prior notice. Dissemination of this information without the expressed written consent of the Public Affairs Office, Tulsa District U.S. Army Corps of Engineers is strictly prohibited. These data are gathered electronically and, as presented, have NOT undergone any form of quality control. These data are NOT guaranteed to be valid or correct.